sensor_id;sensor_type;location;lat;lon;timestamp;P1;durP1;ratioP1;P2;durP2;ratioP2
62353;SDS011;48391;49.184;2.418;2023-03-23T00:01:10;0.55;;;0.20;;
62353;SDS011;48391;49.184;2.418;2023-03-23T00:03:38;0.50;;;0.30;;
62353;SDS011;48391;49.184;2.418;2023-03-23T00:06:04;1.15;;;0.13;;
62353;SDS011;48391;49.184;2.418;2023-03-23T00:08:34;0.95;;;0.20;;
62353;SDS011;48391;49.184;2.418;2023-03-23T00:11:09;0.82;;;0.55;;
62353;SDS011;48391;49.184;2.418;2023-03-23T00:13:35;0.90;;;0.43;;
62353;SDS011;48391;49.184;2.418;2023-03-23T00:16:02;0.43;;;0.13;;
62353;SDS011;48391;49.184;2.418;2023-03-23T00:18:28;1.08;;;0.20;;
62353;SDS011;48391;49.184;2.418;2023-03-23T00:20:55;1.70;;;0.22;;
62353;SDS011;48391;49.184;2.418;2023-03-23T00:23:23;0.30;;;0.10;;
62353;SDS011;48391;49.184;2.418;2023-03-23T00:25:50;0.50;;;0.10;;
62353;SDS011;48391;49.184;2.418;2023-03-23T00:28:18;0.65;;;0.28;;
62353;SDS011;48391;49.184;2.418;2023-03-23T00:30:53;0.30;;;0.30;;
62353;SDS011;48391;49.184;2.418;2023-03-23T00:33:21;0.47;;;0.20;;
62353;SDS011;48391;49.184;2.418;2023-03-23T00:35:47;1.00;;;0.10;;
62353;SDS011;48391;49.184;2.418;2023-03-23T00:38:13;1.02;;;0.30;;
62353;SDS011;48391;49.184;2.418;2023-03-23T00:40:39;1.38;;;0.30;;
62353;SDS011;48391;49.184;2.418;2023-03-23T00:43:05;0.80;;;0.50;;
62353;SDS011;48391;49.184;2.418;2023-03-23T00:45:33;3.10;;;0.73;;
62353;SDS011;48391;49.184;2.418;2023-03-23T00:48:01;1.38;;;0.30;;
62353;SDS011;48391;49.184;2.418;2023-03-23T00:50:29;0.82;;;0.32;;
62353;SDS011;48391;49.184;2.418;2023-03-23T00:52:55;0.47;;;0.22;;
62353;SDS011;48391;49.184;2.418;2023-03-23T00:55:21;1.63;;;0.30;;
62353;SDS011;48391;49.184;2.418;2023-03-23T00:57:47;2.10;;;0.50;;
62353;SDS011;48391;49.184;2.418;2023-03-23T01:00:15;1.60;;;0.50;;
62353;SDS011;48391;49.184;2.418;2023-03-23T01:02:41;1.45;;;0.40;;
62353;SDS011;48391;49.184;2.418;2023-03-23T01:05:09;0.82;;;0.35;;
62353;SDS011;48391;49.184;2.418;2023-03-23T01:07:36;0.75;;;0.75;;
62353;SDS011;48391;49.184;2.418;2023-03-23T01:10:03;0.88;;;0.43;;
62353;SDS011;48391;49.184;2.418;2023-03-23T01:12:29;2.35;;;0.30;;
62353;SDS011;48391;49.184;2.418;2023-03-23T01:14:55;2.83;;;0.40;;
62353;SDS011;48391;49.184;2.418;2023-03-23T01:17:21;1.80;;;0.22;;
62353;SDS011;48391;49.184;2.418;2023-03-23T01:19:47;0.57;;;0.30;;
62353;SDS011;48391;49.184;2.418;2023-03-23T01:22:13;2.38;;;0.60;;
62353;SDS011;48391;49.184;2.418;2023-03-23T01:24:39;1.05;;;0.55;;
62353;SDS011;48391;49.184;2.418;2023-03-23T01:27:06;0.80;;;0.50;;
62353;SDS011;48391;49.184;2.418;2023-03-23T01:29:33;0.32;;;0.20;;
62353;SDS011;48391;49.184;2.418;2023-03-23T01:31:59;2.22;;;0.70;;
62353;SDS011;48391;49.184;2.418;2023-03-23T01:34:25;0.30;;;0.10;;
62353;SDS011;48391;49.184;2.418;2023-03-23T01:36:51;4.15;;;0.50;;
62353;SDS011;48391;49.184;2.418;2023-03-23T01:39:17;2.03;;;0.30;;
62353;SDS011;48391;49.184;2.418;2023-03-23T01:41:43;0.85;;;0.30;;
62353;SDS011;48391;49.184;2.418;2023-03-23T01:46:38;1.38;;;0.65;;
62353;SDS011;48391;49.184;2.418;2023-03-23T01:49:24;1.80;;;0.73;;
62353;SDS011;48391;49.184;2.418;2023-03-23T01:51:53;0.75;;;0.40;;
62353;SDS011;48391;49.184;2.418;2023-03-23T01:54:21;1.95;;;0.63;;
62353;SDS011;48391;49.184;2.418;2023-03-23T01:56:55;0.82;;;0.30;;
62353;SDS011;48391;49.184;2.418;2023-03-23T01:59:23;3.13;;;0.30;;
62353;SDS011;48391;49.184;2.418;2023-03-23T02:01:50;1.63;;;0.63;;
62353;SDS011;48391;49.184;2.418;2023-03-23T02:04:18;0.90;;;0.20;;
62353;SDS011;48391;49.184;2.418;2023-03-23T02:06:44;0.55;;;0.38;;
62353;SDS011;48391;49.184;2.418;2023-03-23T02:11:39;0.15;;;0.15;;
62353;SDS011;48391;49.184;2.418;2023-03-23T02:14:05;1.17;;;0.65;;
62353;SDS011;48391;49.184;2.418;2023-03-23T02:16:48;0.35;;;0.10;;
62353;SDS011;48391;49.184;2.418;2023-03-23T02:26:55;1.50;;;0.28;;
62353;SDS011;48391;49.184;2.418;2023-03-23T02:34:45;0.10;;;0.10;;
62353;SDS011;48391;49.184;2.418;2023-03-23T02:37:16;0.70;;;0.20;;
62353;SDS011;48391;49.184;2.418;2023-03-23T02:42:12;0.68;;;0.35;;
62353;SDS011;48391;49.184;2.418;2023-03-23T02:44:40;1.00;;;0.32;;
62353;SDS011;48391;49.184;2.418;2023-03-23T02:47:08;1.27;;;0.50;;
62353;SDS011;48391;49.184;2.418;2023-03-23T02:49:36;0.68;;;0.20;;
62353;SDS011;48391;49.184;2.418;2023-03-23T02:52:04;0.35;;;0.10;;
62353;SDS011;48391;49.184;2.418;2023-03-23T02:54:32;0.90;;;0.20;;
62353;SDS011;48391;49.184;2.418;2023-03-23T02:56:59;1.00;;;0.35;;
62353;SDS011;48391;49.184;2.418;2023-03-23T02:59:26;2.28;;;0.32;;
62353;SDS011;48391;49.184;2.418;2023-03-23T03:02:00;0.82;;;0.10;;
62353;SDS011;48391;49.184;2.418;2023-03-23T03:04:27;1.85;;;0.30;;
62353;SDS011;48391;49.184;2.418;2023-03-23T03:06:58;0.52;;;0.20;;
62353;SDS011;48391;49.184;2.418;2023-03-23T03:11:55;0.75;;;0.10;;
62353;SDS011;48391;49.184;2.418;2023-03-23T03:14:23;1.85;;;0.40;;
62353;SDS011;48391;49.184;2.418;2023-03-23T03:19:19;0.88;;;0.00;;
62353;SDS011;48391;49.184;2.418;2023-03-23T03:21:46;0.98;;;0.20;;
62353;SDS011;48391;49.184;2.418;2023-03-23T03:24:13;0.77;;;0.30;;
62353;SDS011;48391;49.184;2.418;2023-03-23T03:26:42;0.73;;;0.20;;
62353;SDS011;48391;49.184;2.418;2023-03-23T03:29:16;2.40;;;0.20;;
62353;SDS011;48391;49.184;2.418;2023-03-23T03:31:43;0.55;;;0.40;;
62353;SDS011;48391;49.184;2.418;2023-03-23T03:34:10;0.90;;;0.60;;
62353;SDS011;48391;49.184;2.418;2023-03-23T03:36:37;2.25;;;0.43;;
62353;SDS011;48391;49.184;2.418;2023-03-23T03:39:05;2.03;;;0.43;;
62353;SDS011;48391;49.184;2.418;2023-03-23T03:41:33;1.00;;;0.30;;
62353;SDS011;48391;49.184;2.418;2023-03-23T03:43:59;0.90;;;0.30;;
62353;SDS011;48391;49.184;2.418;2023-03-23T03:46:25;0.60;;;0.10;;
62353;SDS011;48391;49.184;2.418;2023-03-23T03:48:54;0.75;;;0.10;;
62353;SDS011;48391;49.184;2.418;2023-03-23T03:51:22;0.82;;;0.45;;
62353;SDS011;48391;49.184;2.418;2023-03-23T03:53:48;1.65;;;0.10;;
62353;SDS011;48391;49.184;2.418;2023-03-23T03:56:14;1.80;;;0.40;;
62353;SDS011;48391;49.184;2.418;2023-03-23T03:58:41;1.85;;;0.60;;
62353;SDS011;48391;49.184;2.418;2023-03-23T04:01:08;0.60;;;0.20;;
62353;SDS011;48391;49.184;2.418;2023-03-23T04:03:37;1.00;;;0.30;;
62353;SDS011;48391;49.184;2.418;2023-03-23T04:06:04;2.65;;;0.85;;
62353;SDS011;48391;49.184;2.418;2023-03-23T04:08:30;1.30;;;0.20;;
62353;SDS011;48391;49.184;2.418;2023-03-23T04:10:57;1.63;;;0.20;;
62353;SDS011;48391;49.184;2.418;2023-03-23T04:13:23;1.38;;;0.25;;
62353;SDS011;48391;49.184;2.418;2023-03-23T04:15:49;1.55;;;0.47;;
62353;SDS011;48391;49.184;2.418;2023-03-23T04:18:15;2.03;;;0.30;;
62353;SDS011;48391;49.184;2.418;2023-03-23T04:20:43;2.85;;;1.00;;
62353;SDS011;48391;49.184;2.418;2023-03-23T04:23:09;1.52;;;0.60;;
62353;SDS011;48391;49.184;2.418;2023-03-23T04:25:36;1.15;;;0.10;;
62353;SDS011;48391;49.184;2.418;2023-03-23T04:28:02;0.75;;;0.28;;
62353;SDS011;48391;49.184;2.418;2023-03-23T04:30:28;0.65;;;0.30;;
62353;SDS011;48391;49.184;2.418;2023-03-23T04:32:56;0.60;;;0.40;;
62353;SDS011;48391;49.184;2.418;2023-03-23T04:35:25;0.60;;;0.20;;
62353;SDS011;48391;49.184;2.418;2023-03-23T04:37:52;0.75;;;0.22;;
62353;SDS011;48391;49.184;2.418;2023-03-23T04:40:18;0.60;;;0.30;;
62353;SDS011;48391;49.184;2.418;2023-03-23T04:42:44;2.38;;;0.47;;
62353;SDS011;48391;49.184;2.418;2023-03-23T04:45:11;0.45;;;0.25;;
62353;SDS011;48391;49.184;2.418;2023-03-23T04:47:39;1.73;;;0.45;;
62353;SDS011;48391;49.184;2.418;2023-03-23T04:50:09;0.75;;;0.45;;
62353;SDS011;48391;49.184;2.418;2023-03-23T04:52:37;0.63;;;0.63;;
62353;SDS011;48391;49.184;2.418;2023-03-23T04:55:07;0.57;;;0.30;;
62353;SDS011;48391;49.184;2.418;2023-03-23T04:57:34;0.52;;;0.52;;
62353;SDS011;48391;49.184;2.418;2023-03-23T05:00:00;1.60;;;0.40;;
62353;SDS011;48391;49.184;2.418;2023-03-23T05:02:29;1.10;;;0.77;;
62353;SDS011;48391;49.184;2.418;2023-03-23T05:04:56;1.02;;;0.28;;
62353;SDS011;48391;49.184;2.418;2023-03-23T05:07:22;1.00;;;0.30;;
62353;SDS011;48391;49.184;2.418;2023-03-23T05:09:49;1.52;;;0.30;;
62353;SDS011;48391;49.184;2.418;2023-03-23T05:12:15;0.45;;;0.25;;
62353;SDS011;48391;49.184;2.418;2023-03-23T05:14:41;0.88;;;0.30;;
62353;SDS011;48391;49.184;2.418;2023-03-23T05:17:07;1.20;;;0.20;;
62353;SDS011;48391;49.184;2.418;2023-03-23T05:19:34;1.73;;;0.30;;
62353;SDS011;48391;49.184;2.418;2023-03-23T05:22:01;0.50;;;0.43;;
62353;SDS011;48391;49.184;2.418;2023-03-23T05:24:28;0.17;;;0.15;;
62353;SDS011;48391;49.184;2.418;2023-03-23T05:26:56;5.85;;;0.88;;
62353;SDS011;48391;49.184;2.418;2023-03-23T05:29:22;0.70;;;0.25;;
62353;SDS011;48391;49.184;2.418;2023-03-23T05:31:49;0.40;;;0.20;;
62353;SDS011;48391;49.184;2.418;2023-03-23T05:34:15;1.27;;;0.63;;
62353;SDS011;48391;49.184;2.418;2023-03-23T05:36:41;0.52;;;0.45;;
62353;SDS011;48391;49.184;2.418;2023-03-23T05:39:09;3.70;;;0.50;;
62353;SDS011;48391;49.184;2.418;2023-03-23T05:41:35;0.70;;;0.70;;
62353;SDS011;48391;49.184;2.418;2023-03-23T05:44:01;0.60;;;0.40;;
62353;SDS011;48391;49.184;2.418;2023-03-23T05:46:27;0.93;;;0.40;;
62353;SDS011;48391;49.184;2.418;2023-03-23T05:48:53;1.88;;;0.20;;
62353;SDS011;48391;49.184;2.418;2023-03-23T05:51:19;0.40;;;0.40;;
62353;SDS011;48391;49.184;2.418;2023-03-23T05:53:45;0.88;;;0.40;;
62353;SDS011;48391;49.184;2.418;2023-03-23T05:56:13;0.75;;;0.30;;
62353;SDS011;48391;49.184;2.418;2023-03-23T05:58:39;1.85;;;0.38;;
62353;SDS011;48391;49.184;2.418;2023-03-23T06:01:06;0.50;;;0.50;;
62353;SDS011;48391;49.184;2.418;2023-03-23T06:03:32;2.63;;;0.30;;
62353;SDS011;48391;49.184;2.418;2023-03-23T06:06:01;2.30;;;0.30;;
62353;SDS011;48391;49.184;2.418;2023-03-23T06:08:27;2.35;;;0.35;;
62353;SDS011;48391;49.184;2.418;2023-03-23T06:10:53;0.40;;;0.30;;
62353;SDS011;48391;49.184;2.418;2023-03-23T06:13:20;0.80;;;0.30;;
62353;SDS011;48391;49.184;2.418;2023-03-23T06:15:46;1.10;;;0.28;;
62353;SDS011;48391;49.184;2.418;2023-03-23T06:18:13;0.98;;;0.93;;
62353;SDS011;48391;49.184;2.418;2023-03-23T06:20:39;2.95;;;0.65;;
62353;SDS011;48391;49.184;2.418;2023-03-23T06:23:05;5.38;;;0.35;;
62353;SDS011;48391;49.184;2.418;2023-03-23T06:25:33;0.93;;;0.63;;
62353;SDS011;48391;49.184;2.418;2023-03-23T06:27:59;1.52;;;0.50;;
62353;SDS011;48391;49.184;2.418;2023-03-23T06:30:26;0.50;;;0.32;;
62353;SDS011;48391;49.184;2.418;2023-03-23T06:32:53;1.35;;;0.50;;
62353;SDS011;48391;49.184;2.418;2023-03-23T06:35:20;0.52;;;0.38;;
62353;SDS011;48391;49.184;2.418;2023-03-23T06:37:46;1.08;;;0.40;;
62353;SDS011;48391;49.184;2.418;2023-03-23T06:40:13;0.82;;;0.20;;
62353;SDS011;48391;49.184;2.418;2023-03-23T06:42:39;0.20;;;0.20;;
62353;SDS011;48391;49.184;2.418;2023-03-23T06:45:05;0.50;;;0.30;;
62353;SDS011;48391;49.184;2.418;2023-03-23T06:47:32;0.45;;;0.40;;
62353;SDS011;48391;49.184;2.418;2023-03-23T06:49:58;0.50;;;0.28;;
62353;SDS011;48391;49.184;2.418;2023-03-23T06:52:24;3.42;;;0.80;;
62353;SDS011;48391;49.184;2.418;2023-03-23T06:54:51;1.30;;;0.77;;
62353;SDS011;48391;49.184;2.418;2023-03-23T06:57:18;3.67;;;0.80;;
62353;SDS011;48391;49.184;2.418;2023-03-23T06:59:44;0.75;;;0.47;;
62353;SDS011;48391;49.184;2.418;2023-03-23T07:02:11;0.93;;;0.50;;
62353;SDS011;48391;49.184;2.418;2023-03-23T07:04:39;0.98;;;0.43;;
62353;SDS011;48391;49.184;2.418;2023-03-23T07:07:05;0.52;;;0.30;;
62353;SDS011;48391;49.184;2.418;2023-03-23T07:09:32;1.75;;;0.50;;
62353;SDS011;48391;49.184;2.418;2023-03-23T07:11:58;1.27;;;0.38;;
62353;SDS011;48391;49.184;2.418;2023-03-23T07:14:24;0.75;;;0.20;;
62353;SDS011;48391;49.184;2.418;2023-03-23T07:16:51;2.22;;;0.52;;
62353;SDS011;48391;49.184;2.418;2023-03-23T07:19:18;2.90;;;1.10;;
62353;SDS011;48391;49.184;2.418;2023-03-23T07:21:44;1.00;;;0.32;;
62353;SDS011;48391;49.184;2.418;2023-03-23T07:24:11;0.77;;;0.30;;
62353;SDS011;48391;49.184;2.418;2023-03-23T07:26:40;1.17;;;0.40;;
62353;SDS011;48391;49.184;2.418;2023-03-23T07:29:07;1.10;;;0.73;;
62353;SDS011;48391;49.184;2.418;2023-03-23T07:31:33;1.23;;;0.40;;
62353;SDS011;48391;49.184;2.418;2023-03-23T07:34:00;4.00;;;0.90;;
62353;SDS011;48391;49.184;2.418;2023-03-23T07:36:26;3.05;;;0.50;;
62353;SDS011;48391;49.184;2.418;2023-03-23T07:38:52;1.35;;;0.57;;
62353;SDS011;48391;49.184;2.418;2023-03-23T07:41:18;2.45;;;0.77;;
62353;SDS011;48391;49.184;2.418;2023-03-23T07:43:44;1.48;;;0.40;;
62353;SDS011;48391;49.184;2.418;2023-03-23T07:46:11;2.05;;;0.70;;
62353;SDS011;48391;49.184;2.418;2023-03-23T07:48:37;3.15;;;1.10;;
62353;SDS011;48391;49.184;2.418;2023-03-23T07:51:04;5.22;;;1.65;;
62353;SDS011;48391;49.184;2.418;2023-03-23T07:53:30;1.83;;;0.80;;
62353;SDS011;48391;49.184;2.418;2023-03-23T07:55:57;1.75;;;1.02;;
62353;SDS011;48391;49.184;2.418;2023-03-23T07:58:23;1.48;;;0.40;;
62353;SDS011;48391;49.184;2.418;2023-03-23T08:00:51;1.25;;;0.40;;
62353;SDS011;48391;49.184;2.418;2023-03-23T08:03:17;1.48;;;0.40;;
62353;SDS011;48391;49.184;2.418;2023-03-23T08:05:44;2.90;;;0.95;;
62353;SDS011;48391;49.184;2.418;2023-03-23T08:08:10;0.95;;;0.60;;
62353;SDS011;48391;49.184;2.418;2023-03-23T08:10:37;2.08;;;0.57;;
62353;SDS011;48391;49.184;2.418;2023-03-23T08:13:03;1.08;;;0.60;;
62353;SDS011;48391;49.184;2.418;2023-03-23T08:15:31;2.25;;;0.95;;
62353;SDS011;48391;49.184;2.418;2023-03-23T08:17:58;1.02;;;0.70;;
62353;SDS011;48391;49.184;2.418;2023-03-23T08:20:25;2.10;;;0.75;;
62353;SDS011;48391;49.184;2.418;2023-03-23T08:22:52;1.83;;;0.65;;
62353;SDS011;48391;49.184;2.418;2023-03-23T08:25:20;1.02;;;0.82;;
62353;SDS011;48391;49.184;2.418;2023-03-23T08:27:46;1.15;;;0.65;;
62353;SDS011;48391;49.184;2.418;2023-03-23T08:30:14;6.32;;;0.80;;
62353;SDS011;48391;49.184;2.418;2023-03-23T08:32:41;2.17;;;0.63;;
62353;SDS011;48391;49.184;2.418;2023-03-23T08:35:08;3.45;;;1.13;;
62353;SDS011;48391;49.184;2.418;2023-03-23T08:37:34;1.98;;;0.47;;
62353;SDS011;48391;49.184;2.418;2023-03-23T08:40:01;1.63;;;0.70;;
62353;SDS011;48391;49.184;2.418;2023-03-23T08:42:32;2.70;;;1.05;;
62353;SDS011;48391;49.184;2.418;2023-03-23T08:44:58;2.85;;;0.80;;
62353;SDS011;48391;49.184;2.418;2023-03-23T08:47:25;3.67;;;1.02;;
62353;SDS011;48391;49.184;2.418;2023-03-23T08:49:51;2.30;;;0.65;;
62353;SDS011;48391;49.184;2.418;2023-03-23T08:52:19;1.25;;;0.82;;
62353;SDS011;48391;49.184;2.418;2023-03-23T08:54:45;1.05;;;0.70;;
62353;SDS011;48391;49.184;2.418;2023-03-23T08:57:12;1.55;;;0.60;;
62353;SDS011;48391;49.184;2.418;2023-03-23T08:59:40;2.17;;;0.60;;
62353;SDS011;48391;49.184;2.418;2023-03-23T09:02:08;2.25;;;1.30;;
62353;SDS011;48391;49.184;2.418;2023-03-23T09:04:34;3.08;;;1.15;;
62353;SDS011;48391;49.184;2.418;2023-03-23T09:07:00;4.18;;;0.90;;
62353;SDS011;48391;49.184;2.418;2023-03-23T09:09:26;3.63;;;1.08;;
62353;SDS011;48391;49.184;2.418;2023-03-23T09:11:52;3.55;;;1.02;;
62353;SDS011;48391;49.184;2.418;2023-03-23T09:14:19;1.92;;;0.68;;
62353;SDS011;48391;49.184;2.418;2023-03-23T09:16:45;3.47;;;1.02;;
62353;SDS011;48391;49.184;2.418;2023-03-23T09:19:11;5.03;;;1.23;;
62353;SDS011;48391;49.184;2.418;2023-03-23T09:21:37;2.40;;;0.95;;
62353;SDS011;48391;49.184;2.418;2023-03-23T09:24:04;5.82;;;1.17;;
62353;SDS011;48391;49.184;2.418;2023-03-23T09:26:31;2.45;;;0.98;;
62353;SDS011;48391;49.184;2.418;2023-03-23T09:28:57;2.38;;;0.90;;
62353;SDS011;48391;49.184;2.418;2023-03-23T09:31:23;2.40;;;1.00;;
62353;SDS011;48391;49.184;2.418;2023-03-23T09:33:52;1.80;;;0.65;;
62353;SDS011;48391;49.184;2.418;2023-03-23T09:36:21;5.03;;;1.67;;
62353;SDS011;48391;49.184;2.418;2023-03-23T09:38:47;1.67;;;0.90;;
62353;SDS011;48391;49.184;2.418;2023-03-23T09:44:01;2.40;;;1.13;;
62353;SDS011;48391;49.184;2.418;2023-03-23T09:47:05;1.92;;;0.65;;
62353;SDS011;48391;49.184;2.418;2023-03-23T09:49:24;2.42;;;1.10;;
62353;SDS011;48391;49.184;2.418;2023-03-23T09:52:07;3.50;;;0.67;;
62353;SDS011;48391;49.184;2.418;2023-03-23T09:54:36;3.22;;;1.60;;
62353;SDS011;48391;49.184;2.418;2023-03-23T09:57:03;1.85;;;0.63;;
62353;SDS011;48391;49.184;2.418;2023-03-23T09:59:41;2.88;;;0.85;;
62353;SDS011;48391;49.184;2.418;2023-03-23T10:02:16;3.08;;;0.55;;
62353;SDS011;48391;49.184;2.418;2023-03-23T10:04:52;3.85;;;1.15;;
62353;SDS011;48391;49.184;2.418;2023-03-23T10:07:21;2.42;;;1.33;;
62353;SDS011;48391;49.184;2.418;2023-03-23T10:09:49;4.35;;;0.98;;
62353;SDS011;48391;49.184;2.418;2023-03-23T10:15:17;1.25;;;0.98;;
62353;SDS011;48391;49.184;2.418;2023-03-23T10:20:25;4.93;;;1.23;;
62353;SDS011;48391;49.184;2.418;2023-03-23T10:25:44;1.67;;;0.60;;
62353;SDS011;48391;49.184;2.418;2023-03-23T10:28:15;3.58;;;1.00;;
62353;SDS011;48391;49.184;2.418;2023-03-23T10:30:44;2.97;;;0.93;;
62353;SDS011;48391;49.184;2.418;2023-03-23T10:33:14;1.63;;;0.85;;
62353;SDS011;48391;49.184;2.418;2023-03-23T10:38:19;3.60;;;0.95;;
62353;SDS011;48391;49.184;2.418;2023-03-23T10:40:50;1.20;;;0.60;;
62353;SDS011;48391;49.184;2.418;2023-03-23T10:43:18;2.35;;;0.85;;
62353;SDS011;48391;49.184;2.418;2023-03-23T10:45:45;2.78;;;1.08;;
62353;SDS011;48391;49.184;2.418;2023-03-23T10:48:18;3.35;;;1.17;;
62353;SDS011;48391;49.184;2.418;2023-03-23T10:50:48;3.65;;;1.30;;
62353;SDS011;48391;49.184;2.418;2023-03-23T10:53:20;4.60;;;1.15;;
62353;SDS011;48391;49.184;2.418;2023-03-23T10:55:46;2.33;;;0.73;;
62353;SDS011;48391;49.184;2.418;2023-03-23T11:00:54;5.65;;;1.80;;
62353;SDS011;48391;49.184;2.418;2023-03-23T11:05:59;4.15;;;1.23;;
62353;SDS011;48391;49.184;2.418;2023-03-23T11:08:30;2.42;;;1.50;;
62353;SDS011;48391;49.184;2.418;2023-03-23T11:10:59;3.77;;;1.80;;
62353;SDS011;48391;49.184;2.418;2023-03-23T11:13:32;4.03;;;1.50;;
62353;SDS011;48391;49.184;2.418;2023-03-23T11:16:00;3.97;;;1.30;;
62353;SDS011;48391;49.184;2.418;2023-03-23T18:01:14;6.60;;;1.67;;
62353;SDS011;48391;49.184;2.418;2023-03-23T18:03:40;3.47;;;1.02;;
62353;SDS011;48391;49.184;2.418;2023-03-23T18:06:06;2.35;;;0.73;;
62353;SDS011;48391;49.184;2.418;2023-03-23T18:08:33;2.30;;;0.88;;
62353;SDS011;48391;49.184;2.418;2023-03-23T18:10:59;5.22;;;1.45;;
62353;SDS011;48391;49.184;2.418;2023-03-23T18:13:26;1.48;;;1.00;;
62353;SDS011;48391;49.184;2.418;2023-03-23T18:15:53;2.50;;;0.80;;
62353;SDS011;48391;49.184;2.418;2023-03-23T18:18:20;1.80;;;1.02;;
62353;SDS011;48391;49.184;2.418;2023-03-23T18:20:46;1.55;;;0.70;;
62353;SDS011;48391;49.184;2.418;2023-03-23T18:23:12;2.15;;;1.33;;
62353;SDS011;48391;49.184;2.418;2023-03-23T18:25:38;2.30;;;0.80;;
62353;SDS011;48391;49.184;2.418;2023-03-23T18:28:05;5.20;;;1.55;;
62353;SDS011;48391;49.184;2.418;2023-03-23T18:30:32;3.30;;;1.20;;
62353;SDS011;48391;49.184;2.418;2023-03-23T18:32:58;1.45;;;0.88;;
62353;SDS011;48391;49.184;2.418;2023-03-23T18:35:24;1.02;;;0.88;;
62353;SDS011;48391;49.184;2.418;2023-03-23T18:37:50;3.60;;;1.33;;
62353;SDS011;48391;49.184;2.418;2023-03-23T18:40:16;2.90;;;0.90;;
62353;SDS011;48391;49.184;2.418;2023-03-23T18:42:44;1.80;;;1.08;;
62353;SDS011;48391;49.184;2.418;2023-03-23T18:45:10;1.58;;;0.63;;
62353;SDS011;48391;49.184;2.418;2023-03-23T18:47:37;4.43;;;0.98;;
62353;SDS011;48391;49.184;2.418;2023-03-23T18:50:06;3.08;;;1.00;;
62353;SDS011;48391;49.184;2.418;2023-03-23T18:52:32;3.58;;;1.13;;
62353;SDS011;48391;49.184;2.418;2023-03-23T18:54:58;3.95;;;1.73;;
62353;SDS011;48391;49.184;2.418;2023-03-23T18:57:25;1.92;;;1.45;;
62353;SDS011;48391;49.184;2.418;2023-03-23T18:59:51;1.08;;;0.73;;
62353;SDS011;48391;49.184;2.418;2023-03-23T19:02:17;2.75;;;0.93;;
62353;SDS011;48391;49.184;2.418;2023-03-23T19:04:44;3.92;;;0.90;;
62353;SDS011;48391;49.184;2.418;2023-03-23T19:07:11;1.95;;;0.70;;
62353;SDS011;48391;49.184;2.418;2023-03-23T19:09:37;3.17;;;1.10;;
62353;SDS011;48391;49.184;2.418;2023-03-23T19:12:06;1.52;;;0.73;;
62353;SDS011;48391;49.184;2.418;2023-03-23T19:14:32;3.45;;;1.30;;
62353;SDS011;48391;49.184;2.418;2023-03-23T19:16:58;2.92;;;0.95;;
62353;SDS011;48391;49.184;2.418;2023-03-23T19:19:24;2.40;;;0.93;;
62353;SDS011;48391;49.184;2.418;2023-03-23T19:21:51;2.08;;;1.02;;
62353;SDS011;48391;49.184;2.418;2023-03-23T19:24:17;6.43;;;1.65;;
62353;SDS011;48391;49.184;2.418;2023-03-23T19:26:43;1.58;;;1.17;;
62353;SDS011;48391;49.184;2.418;2023-03-23T19:29:14;1.40;;;0.60;;
62353;SDS011;48391;49.184;2.418;2023-03-23T19:31:41;5.57;;;0.85;;
62353;SDS011;48391;49.184;2.418;2023-03-23T19:34:07;2.70;;;0.95;;
62353;SDS011;48391;49.184;2.418;2023-03-23T19:36:33;2.78;;;1.35;;
62353;SDS011;48391;49.184;2.418;2023-03-23T19:39:00;2.75;;;0.80;;
62353;SDS011;48391;49.184;2.418;2023-03-23T19:41:28;2.97;;;1.30;;
62353;SDS011;48391;49.184;2.418;2023-03-23T19:43:55;2.47;;;1.15;;
62353;SDS011;48391;49.184;2.418;2023-03-23T19:46:21;3.88;;;1.02;;
62353;SDS011;48391;49.184;2.418;2023-03-23T19:48:47;2.95;;;0.98;;
62353;SDS011;48391;49.184;2.418;2023-03-23T19:51:14;2.38;;;1.42;;
62353;SDS011;48391;49.184;2.418;2023-03-23T19:53:42;4.90;;;1.98;;
62353;SDS011;48391;49.184;2.418;2023-03-23T19:56:12;1.20;;;1.10;;
62353;SDS011;48391;49.184;2.418;2023-03-23T19:58:38;6.32;;;1.67;;
62353;SDS011;48391;49.184;2.418;2023-03-23T20:01:05;6.25;;;1.23;;
62353;SDS011;48391;49.184;2.418;2023-03-23T20:03:31;3.67;;;1.00;;
62353;SDS011;48391;49.184;2.418;2023-03-23T20:06:01;1.92;;;0.95;;
62353;SDS011;48391;49.184;2.418;2023-03-23T20:08:28;4.60;;;2.03;;
62353;SDS011;48391;49.184;2.418;2023-03-23T20:11:06;1.13;;;0.82;;
62353;SDS011;48391;49.184;2.418;2023-03-23T20:13:32;2.35;;;1.30;;
62353;SDS011;48391;49.184;2.418;2023-03-23T20:15:58;1.88;;;0.65;;
62353;SDS011;48391;49.184;2.418;2023-03-23T20:18:24;2.15;;;1.75;;
62353;SDS011;48391;49.184;2.418;2023-03-23T20:20:58;2.85;;;1.00;;
62353;SDS011;48391;49.184;2.418;2023-03-23T20:23:24;4.13;;;1.52;;
62353;SDS011;48391;49.184;2.418;2023-03-23T20:25:50;4.40;;;2.55;;
62353;SDS011;48391;49.184;2.418;2023-03-23T20:28:16;3.15;;;1.40;;
62353;SDS011;48391;49.184;2.418;2023-03-23T20:30:42;3.10;;;1.45;;
62353;SDS011;48391;49.184;2.418;2023-03-23T20:33:08;3.60;;;2.00;;
62353;SDS011;48391;49.184;2.418;2023-03-23T20:35:34;2.65;;;1.58;;
62353;SDS011;48391;49.184;2.418;2023-03-23T20:38:00;3.38;;;1.00;;
62353;SDS011;48391;49.184;2.418;2023-03-23T20:40:26;3.83;;;1.75;;
62353;SDS011;48391;49.184;2.418;2023-03-23T20:42:55;2.55;;;1.83;;
62353;SDS011;48391;49.184;2.418;2023-03-23T20:45:21;3.65;;;1.67;;
62353;SDS011;48391;49.184;2.418;2023-03-23T20:47:48;1.70;;;1.27;;
62353;SDS011;48391;49.184;2.418;2023-03-23T20:50:14;2.63;;;1.90;;
62353;SDS011;48391;49.184;2.418;2023-03-23T20:52:40;3.63;;;1.33;;
62353;SDS011;48391;49.184;2.418;2023-03-23T20:55:06;2.35;;;1.27;;
62353;SDS011;48391;49.184;2.418;2023-03-23T20:57:33;2.55;;;1.63;;
62353;SDS011;48391;49.184;2.418;2023-03-23T21:00:01;2.85;;;1.10;;
62353;SDS011;48391;49.184;2.418;2023-03-23T21:02:30;1.45;;;0.90;;
62353;SDS011;48391;49.184;2.418;2023-03-23T21:04:58;1.45;;;1.05;;
62353;SDS011;48391;49.184;2.418;2023-03-23T21:07:28;2.30;;;1.50;;
62353;SDS011;48391;49.184;2.418;2023-03-23T21:09:54;2.03;;;1.20;;
62353;SDS011;48391;49.184;2.418;2023-03-23T21:12:21;1.85;;;1.00;;
62353;SDS011;48391;49.184;2.418;2023-03-23T21:14:47;1.70;;;1.00;;
62353;SDS011;48391;49.184;2.418;2023-03-23T21:17:13;1.42;;;1.10;;
62353;SDS011;48391;49.184;2.418;2023-03-23T21:19:39;1.55;;;1.25;;
62353;SDS011;48391;49.184;2.418;2023-03-23T21:22:05;3.25;;;1.20;;
62353;SDS011;48391;49.184;2.418;2023-03-23T21:24:33;2.50;;;0.95;;
62353;SDS011;48391;49.184;2.418;2023-03-23T21:27:02;1.65;;;0.80;;
62353;SDS011;48391;49.184;2.418;2023-03-23T21:29:29;1.30;;;0.77;;
62353;SDS011;48391;49.184;2.418;2023-03-23T21:31:55;1.15;;;1.05;;
62353;SDS011;48391;49.184;2.418;2023-03-23T21:34:22;2.70;;;1.25;;
62353;SDS011;48391;49.184;2.418;2023-03-23T21:36:48;1.20;;;0.77;;
62353;SDS011;48391;49.184;2.418;2023-03-23T21:39:14;1.00;;;0.70;;
62353;SDS011;48391;49.184;2.418;2023-03-23T21:41:40;1.75;;;0.93;;
62353;SDS011;48391;49.184;2.418;2023-03-23T21:44:06;0.73;;;0.50;;
62353;SDS011;48391;49.184;2.418;2023-03-23T21:46:34;2.47;;;0.90;;
62353;SDS011;48391;49.184;2.418;2023-03-23T21:49:02;1.45;;;0.68;;
62353;SDS011;48391;49.184;2.418;2023-03-23T21:51:28;3.15;;;1.30;;
62353;SDS011;48391;49.184;2.418;2023-03-23T21:53:55;0.73;;;0.73;;
62353;SDS011;48391;49.184;2.418;2023-03-23T21:56:22;2.53;;;0.75;;
62353;SDS011;48391;49.184;2.418;2023-03-23T21:58:49;2.15;;;1.23;;
62353;SDS011;48391;49.184;2.418;2023-03-23T22:01:15;1.60;;;0.93;;
62353;SDS011;48391;49.184;2.418;2023-03-23T22:03:42;2.00;;;0.60;;
62353;SDS011;48391;49.184;2.418;2023-03-23T22:06:18;1.23;;;0.68;;
62353;SDS011;48391;49.184;2.418;2023-03-23T22:08:48;0.80;;;0.60;;
62353;SDS011;48391;49.184;2.418;2023-03-23T22:11:16;0.70;;;0.60;;
62353;SDS011;48391;49.184;2.418;2023-03-23T22:13:42;1.77;;;0.80;;
62353;SDS011;48391;49.184;2.418;2023-03-23T22:16:09;1.95;;;0.95;;